Time;durP1;ratioP1;P1;durP2;ratioP2;P2;SDS_P1;SDS_P2;PMS_P1;PMS_P2;Temp;Humidity;BMP_temperature;BMP_pressure;BME280_temperature;BME280_humidity;BME280_pressure;Samples;Min_cycle;Max_cycle;Signal;HPM_P1;HPM_P2
2022/08/13 00:02:24;;;;;;;;;;;;;;;;;;6242924;23;19915;-78
2022/08/13 00:04:59;;;;;;;;;;;;;;;;;;6242861;23;19907;-78
2022/08/13 00:07:25;;;;;;;;;;;;;;;;;;6242863;23;19907;-76
2022/08/13 00:09:51;;;;;;;;;;;;;;;;;;6242766;23;19915;-77
2022/08/13 00:15:01;;;;;;;;;;;;;;;;;;6242499;23;19915;-76
2022/08/13 00:17:26;;;;;;;;;;;;;;;;;;6242875;23;19911;-78
2022/08/13 00:19:53;;;;;;;;;;;;;;;;;;6242537;23;19907;-77
2022/08/13 00:22:22;;;;;;;;;;;;;;;;;;6242606;22;20416;-77
2022/08/13 00:24:47;;;;;;;;;;;;;;;;;;6242573;23;19907;-76
2022/08/13 00:27:13;;;;;;;;;;;;;;;;;;6216045;23;19914;-77
2022/08/13 00:29:39;;;;;;;;;;;;;;;;;;6242698;23;20029;-77
2022/08/13 00:32:04;;;;;;;;;;;;;;;;;;6242615;23;19915;-78
2022/08/13 00:34:30;;;;;;;;;;;;;;;;;;6190707;23;19923;-77
2022/08/13 00:36:56;;;;;;;;;;;;;;;;;;6242134;23;19912;-77
2022/08/13 00:39:21;;;;;;;;;;;;;;;;;;6242866;23;20390;-76
2022/08/13 00:41:47;;;;;;;;;;;;;;;;;;6242037;23;20388;-77
2022/08/13 00:44:12;;;;;;;;;;;;;;;;;;6242417;23;19907;-75
2022/08/13 00:46:38;;;;;;;;;;;;;;;;;;6190655;23;19908;-80
2022/08/13 00:49:04;;;;;;;;;;;;;;;;;;6215620;22;19915;-75
2022/08/13 00:51:30;;;;;;;;;;;;;;;;;;6242876;23;19935;-77
2022/08/13 00:53:55;;;;;;;;;;;;;;;;;;6242063;23;19914;-76
2022/08/13 00:56:24;;;;;;;;;;;;;;;;;;6242507;23;20362;-77
2022/08/13 00:58:49;;;;;;;;;;;;;;;;;;6242775;23;19942;-77
2022/08/13 01:01:15;;;;;;;;;;;;;;;;;;6242646;23;19907;-76
2022/08/13 01:03:41;;;;;;;;;;;;;;;;;;6242429;23;19946;-77
2022/08/13 01:06:06;;;;;;;;;;;;;;;;;;6243298;23;20375;-77
2022/08/13 01:08:32;;;;;;;;;;;;;;;;;;6231909;23;19966;-77
2022/08/13 01:10:58;;;;;;;;;;;;;;;;;;6262883;23;19927;-76
2022/08/13 01:13:26;;;;;;;;;;;;;;;;;;6221338;23;19910;-77
2022/08/13 01:15:52;;;;;;;;;;;;;;;;;;6242445;23;19923;-76
2022/08/13 01:18:18;;;;;;;;;;;;;;;;;;6240744;23;19933;-77
2022/08/13 01:20:43;;;;;;;;;;;;;;;;;;6242284;23;19907;-78
2022/08/13 01:23:10;;;;;;;;;;;;;;;;;;6219737;23;19917;-75
2022/08/13 01:25:35;;;;;;;;;;;;;;;;;;6227871;23;19908;-78
2022/08/13 01:28:01;;;;;;;;;;;;;;;;;;6242166;23;20009;-78
2022/08/13 01:30:27;;;;;;;;;;;;;;;;;;6243281;23;19911;-77
2022/08/13 01:32:54;;;;;;;;;;;;;;;;;;6242254;23;19907;-77
2022/08/13 01:35:20;;;;;;;;;;;;;;;;;;6242261;23;19916;-76
2022/08/13 01:37:52;;;;;;;;;;;;;;;;;;6241951;23;20005;-76
2022/08/13 01:40:17;;;;;;;;;;;;;;;;;;6242731;23;19908;-78
2022/08/13 01:42:43;;;;;;;;;;;;;;;;;;6241989;23;19961;-77
2022/08/13 01:45:09;;;;;;;;;;;;;;;;;;6242265;23;19908;-77
2022/08/13 01:50:29;;;;;;;;;;;;;;;;;;6242070;22;19947;-76
2022/08/13 01:52:59;;;;;;;;;;;;;;;;;;6241927;23;19958;-76
2022/08/13 01:55:25;;;;;;;;;;;;;;;;;;6243473;23;19915;-77
2022/08/13 01:57:53;;;;;;;;;;;;;;;;;;6243626;23;19907;-77
2022/08/13 02:00:20;;;;;;;;;;;;;;;;;;6244194;23;20332;-78
2022/08/13 02:02:48;;;;;;;;;;;;;;;;;;6241899;23;19988;-78
2022/08/13 02:05:13;;;;;;;;;;;;;;;;;;6244366;23;19907;-76
2022/08/13 02:07:39;;;;;;;;;;;;;;;;;;6243815;23;19907;-77
2022/08/13 02:10:05;;;;;;;;;;;;;;;;;;6243692;23;19914;-78
2022/08/13 02:12:31;;;;;;;;;;;;;;;;;;6243788;23;19954;-76
2022/08/13 02:15:02;;;;;;;;;;;;;;;;;;6243549;23;19919;-76
2022/08/13 02:17:30;;;;;;;;;;;;;;;;;;6243898;23;20252;-77
2022/08/13 02:19:56;;;;;;;;;;;;;;;;;;6243593;23;19907;-77
2022/08/13 02:22:22;;;;;;;;;;;;;;;;;;6243925;22;20390;-76
2022/08/13 02:24:48;;;;;;;;;;;;;;;;;;6216920;23;19908;-76
2022/08/13 02:27:14;;;;;;;;;;;;;;;;;;6243651;23;20367;-77
2022/08/13 02:29:39;;;;;;;;;;;;;;;;;;6244087;23;19907;-77
2022/08/13 02:32:05;;;;;;;;;;;;;;;;;;6243721;23;19908;-78
2022/08/13 02:34:31;;;;;;;;;;;;;;;;;;6243921;23;19947;-78
2022/08/13 02:36:58;;;;;;;;;;;;;;;;;;6216994;23;19908;-76
2022/08/13 02:39:24;;;;;;;;;;;;;;;;;;6244062;23;19990;-77
2022/08/13 02:41:50;;;;;;;;;;;;;;;;;;6243563;23;19985;-79
2022/08/13 02:44:15;;;;;;;;;;;;;;;;;;6244245;23;19908;-76
2022/08/13 02:46:42;;;;;;;;;;;;;;;;;;6243886;23;19929;-77
2022/08/13 02:49:07;;;;;;;;;;;;;;;;;;6243381;23;19923;-78
2022/08/13 02:51:33;;;;;;;;;;;;;;;;;;6244883;23;19990;-74
2022/08/13 02:54:00;;;;;;;;;;;;;;;;;;6249331;23;19907;-77
2022/08/13 02:56:26;;;;;;;;;;;;;;;;;;6250129;23;19907;-78
2022/08/13 02:58:51;;;;;;;;;;;;;;;;;;6217408;23;20252;-76
2022/08/13 03:01:17;;;;;;;;;;;;;;;;;;6243597;23;19953;-77
2022/08/13 03:03:43;;;;;;;;;;;;;;;;;;6243330;23;19914;-77
2022/08/13 03:06:08;;;;;;;;;;;;;;;;;;6216432;23;19961;-77
2022/08/13 03:08:34;;;;;;;;;;;;;;;;;;6216915;23;19986;-77
2022/08/13 03:11:00;;;;;;;;;;;;;;;;;;6216629;23;19939;-78
2022/08/13 03:13:25;;;;;;;;;;;;;;;;;;6217763;23;20344;-77
2022/08/13 03:15:52;;;;;;;;;;;;;;;;;;6244653;23;19957;-77
2022/08/13 03:18:18;;;;;;;;;;;;;;;;;;6256097;23;19915;-76
2022/08/13 03:20:44;;;;;;;;;;;;;;;;;;6244288;23;20238;-79
2022/08/13 03:23:09;;;;;;;;;;;;;;;;;;6241595;22;20351;-77
2022/08/13 03:25:35;;;;;;;;;;;;;;;;;;6243460;23;19914;-76
2022/08/13 03:28:01;;;;;;;;;;;;;;;;;;6241217;23;19907;-78
2022/08/13 03:30:26;;;;;;;;;;;;;;;;;;6243558;23;19911;-78
2022/08/13 03:32:52;;;;;;;;;;;;;;;;;;6242970;23;19971;-77
2022/08/13 03:35:18;;;;;;;;;;;;;;;;;;6216355;23;19984;-77
2022/08/13 03:37:43;;;;;;;;;;;;;;;;;;6243534;23;19915;-79
2022/08/13 03:40:09;;;;;;;;;;;;;;;;;;6242965;23;20001;-77
2022/08/13 03:42:35;;;;;;;;;;;;;;;;;;6243522;23;20237;-79
2022/08/13 03:45:01;;;;;;;;;;;;;;;;;;6243403;23;19907;-78
2022/08/13 03:47:28;;;;;;;;;;;;;;;;;;6243263;23;19931;-79
2022/08/13 03:49:53;;;;;;;;;;;;;;;;;;6242927;23;19916;-77
2022/08/13 03:52:19;;;;;;;;;;;;;;;;;;6243350;23;19929;-78
2022/08/13 03:54:45;;;;;;;;;;;;;;;;;;6243025;23;19922;-79
2022/08/13 03:57:11;;;;;;;;;;;;;;;;;;6242786;23;19907;-79
2022/08/13 03:59:38;;;;;;;;;;;;;;;;;;6243170;23;19922;-78
2022/08/13 04:02:03;;;;;;;;;;;;;;;;;;6243251;23;20299;-79
2022/08/13 04:04:29;;;;;;;;;;;;;;;;;;6248582;23;19908;-77
2022/08/13 04:06:55;;;;;;;;;;;;;;;;;;6253692;23;19947;-79
2022/08/13 04:09:20;;;;;;;;;;;;;;;;;;6259396;23;20295;-79
2022/08/13 04:11:46;;;;;;;;;;;;;;;;;;6257687;23;19907;-77
2022/08/13 04:14:12;;;;;;;;;;;;;;;;;;6246027;23;19907;-79
2022/08/13 04:16:39;;;;;;;;;;;;;;;;;;6243580;23;19907;-79
2022/08/13 04:19:05;;;;;;;;;;;;;;;;;;6243007;23;20242;-79
2022/08/13 04:21:31;;;;;;;;;;;;;;;;;;6243443;22;19938;-79
2022/08/13 04:23:57;;;;;;;;;;;;;;;;;;6242927;23;19954;-80
2022/08/13 04:26:23;;;;;;;;;;;;;;;;;;6243521;23;19915;-81
2022/08/13 04:28:49;;;;;;;;;;;;;;;;;;6243040;23;20268;-80
2022/08/13 04:31:15;;;;;;;;;;;;;;;;;;6243025;23;19989;-80
2022/08/13 04:33:40;;;;;;;;;;;;;;;;;;6214560;23;19907;-79
2022/08/13 04:36:06;;;;;;;;;;;;;;;;;;6241884;23;20001;-79
2022/08/13 04:38:33;;;;;;;;;;;;;;;;;;6216793;23;19946;-79
2022/08/13 04:40:59;;;;;;;;;;;;;;;;;;6243273;23;19954;-80
2022/08/13 04:43:24;;;;;;;;;;;;;;;;;;6241832;23;19912;-79
2022/08/13 04:45:50;;;;;;;;;;;;;;;;;;6243532;23;19935;-79
2022/08/13 04:48:16;;;;;;;;;;;;;;;;;;6243573;23;20359;-80
2022/08/13 04:50:41;;;;;;;;;;;;;;;;;;6191669;23;19916;-80
2022/08/13 04:53:07;;;;;;;;;;;;;;;;;;6243629;23;19962;-80
2022/08/13 04:55:33;;;;;;;;;;;;;;;;;;6244377;23;19918;-79
2022/08/13 04:57:58;;;;;;;;;;;;;;;;;;6243163;23;19938;-80
2022/08/13 05:00:24;;;;;;;;;;;;;;;;;;6243436;23;19907;-79
2022/08/13 05:02:50;;;;;;;;;;;;;;;;;;6243559;23;19907;-79
2022/08/13 05:05:16;;;;;;;;;;;;;;;;;;6243367;23;19913;-79
2022/08/13 05:07:49;;;;;;;;;;;;;;;;;;6247438;23;20010;-78
2022/08/13 05:10:15;;;;;;;;;;;;;;;;;;6258131;23;19915;-79
2022/08/13 05:12:41;;;;;;;;;;;;;;;;;;6248127;23;19908;-80
2022/08/13 05:15:07;;;;;;;;;;;;;;;;;;6244327;23;19920;-80
2022/08/13 05:17:33;;;;;;;;;;;;;;;;;;6243824;23;19930;-78
2022/08/13 05:19:58;;;;;;;;;;;;;;;;;;6216588;23;19907;-81
2022/08/13 05:22:24;;;;;;;;;;;;;;;;;;6243540;22;19908;-79
2022/08/13 05:24:50;;;;;;;;;;;;;;;;;;6243249;23;19915;-79
2022/08/13 05:27:16;;;;;;;;;;;;;;;;;;6243124;23;19908;-78
2022/08/13 05:29:42;;;;;;;;;;;;;;;;;;6243563;23;19907;-80
2022/08/13 05:32:10;;;;;;;;;;;;;;;;;;6244635;23;19907;-80
2022/08/13 05:34:37;;;;;;;;;;;;;;;;;;6245091;23;19919;-79
2022/08/13 05:37:02;;;;;;;;;;;;;;;;;;6244788;23;20375;-80
2022/08/13 05:39:28;;;;;;;;;;;;;;;;;;6244800;23;19907;-81
2022/08/13 05:41:53;;;;;;;;;;;;;;;;;;6244692;23;19907;-79
2022/08/13 05:44:21;;;;;;;;;;;;;;;;;;6244355;23;19907;-79
2022/08/13 05:46:47;;;;;;;;;;;;;;;;;;6244695;23;19911;-79
2022/08/13 05:49:13;;;;;;;;;;;;;;;;;;6244129;22;19990;-80
2022/08/13 05:51:39;;;;;;;;;;;;;;;;;;6244545;23;19930;-79
2022/08/13 05:54:07;;;;;;;;;;;;;;;;;;6244417;23;19903;-80
2022/08/13 05:56:35;;;;;;;;;;;;;;;;;;6244748;23;20074;-81
2022/08/13 05:59:01;;;;;;;;;;;;;;;;;;6244713;23;19907;-80
2022/08/13 06:04:11;;;;;;;;;;;;;;;;;;6244293;23;19953;-79
2022/08/13 06:06:36;;;;;;;;;;;;;;;;;;6244784;23;19994;-80
2022/08/13 06:09:02;;;;;;;;;;;;;;;;;;6244138;23;19915;-81
2022/08/13 06:11:30;;;;;;;;;;;;;;;;;;6218153;23;20344;-79
2022/08/13 06:13:56;;;;;;;;;;;;;;;;;;6244283;23;19922;-79
2022/08/13 06:16:22;;;;;;;;;;;;;;;;;;6243981;23;19915;-80
2022/08/13 06:18:48;;;;;;;;;;;;;;;;;;6244109;23;20382;-80
2022/08/13 06:21:14;;;;;;;;;;;;;;;;;;6217496;22;19998;-80
2022/08/13 06:23:40;;;;;;;;;;;;;;;;;;6217612;23;19915;-80
2022/08/13 06:26:06;;;;;;;;;;;;;;;;;;6244558;23;19907;-80
2022/08/13 06:28:32;;;;;;;;;;;;;;;;;;6244721;23;19908;-80
2022/08/13 06:31:00;;;;;;;;;;;;;;;;;;6244590;23;19930;-81
2022/08/13 06:33:26;;;;;;;;;;;;;;;;;;6244505;23;19982;-81
2022/08/13 06:35:52;;;;;;;;;;;;;;;;;;6218254;23;19961;-80
2022/08/13 06:38:18;;;;;;;;;;;;;;;;;;6217172;23;20401;-81
2022/08/13 06:40:44;;;;;;;;;;;;;;;;;;6242881;23;19942;-82
2022/08/13 06:43:09;;;;;;;;;;;;;;;;;;6243987;23;19923;-80
2022/08/13 06:45:36;;;;;;;;;;;;;;;;;;6244228;23;19915;-81
2022/08/13 06:48:01;;;;;;;;;;;;;;;;;;6243702;23;19908;-80
2022/08/13 06:50:27;;;;;;;;;;;;;;;;;;6244042;23;19973;-80
2022/08/13 06:52:54;;;;;;;;;;;;;;;;;;6244228;23;19931;-80
2022/08/13 06:55:20;;;;;;;;;;;;;;;;;;6192430;23;20366;-80
2022/08/13 06:57:46;;;;;;;;;;;;;;;;;;6245568;23;19990;-79
2022/08/13 07:00:12;;;;;;;;;;;;;;;;;;6244605;23;19979;-80
2022/08/13 07:02:38;;;;;;;;;;;;;;;;;;6248835;23;19908;-79
2022/08/13 07:05:04;;;;;;;;;;;;;;;;;;6224289;23;19907;-80
2022/08/13 07:07:31;;;;;;;;;;;;;;;;;;6257049;23;19951;-79
2022/08/13 07:09:57;;;;;;;;;;;;;;;;;;6259472;23;19908;-79
2022/08/13 07:12:22;;;;;;;;;;;;;;;;;;6250452;23;19915;-80
2022/08/13 07:14:48;;;;;;;;;;;;;;;;;;6244397;23;19916;-81
2022/08/13 07:17:14;;;;;;;;;;;;;;;;;;6243769;23;20443;-81
2022/08/13 07:19:40;;;;;;;;;;;;;;;;;;6244120;23;19915;-80
2022/08/13 07:22:05;;;;;;;;;;;;;;;;;;6243755;22;19923;-81
2022/08/13 07:24:31;;;;;;;;;;;;;;;;;;6242279;23;20256;-80
2022/08/13 07:26:59;;;;;;;;;;;;;;;;;;6243880;23;19911;-81
2022/08/13 07:29:26;;;;;;;;;;;;;;;;;;6243563;23;19907;-82
2022/08/13 07:31:54;;;;;;;;;;;;;;;;;;6243576;23;19914;-82
2022/08/13 07:34:21;;;;;;;;;;;;;;;;;;6216899;23;19915;-82
2022/08/13 07:36:49;;;;;;;;;;;;;;;;;;6244313;23;20210;-82
2022/08/13 07:39:16;;;;;;;;;;;;;;;;;;6244162;23;19911;-80
2022/08/13 07:41:42;;;;;;;;;;;;;;;;;;6192266;23;19907;-81
2022/08/13 07:44:09;;;;;;;;;;;;;;;;;;6243609;23;20287;-81
2022/08/13 07:46:38;;;;;;;;;;;;;;;;;;6243795;23;20252;-80
2022/08/13 07:49:04;;;;;;;;;;;;;;;;;;6243711;22;19915;-81
2022/08/13 07:51:29;;;;;;;;;;;;;;;;;;6243837;23;20252;-81
2022/08/13 07:53:56;;;;;;;;;;;;;;;;;;6243373;23;19907;-80
2022/08/13 07:56:28;;;;;;;;;;;;;;;;;;6242054;23;19916;-80
2022/08/13 07:58:55;;;;;;;;;;;;;;;;;;6243758;23;19997;-81
2022/08/13 08:01:20;;;;;;;;;;;;;;;;;;6243404;23;19918;-81
2022/08/13 08:03:47;;;;;;;;;;;;;;;;;;6243512;23;20268;-81
2022/08/13 08:06:17;;;;;;;;;;;;;;;;;;6243330;23;19970;-79
2022/08/13 08:08:43;;;;;;;;;;;;;;;;;;6243645;23;19980;-80
2022/08/13 08:11:08;;;;;;;;;;;;;;;;;;6243817;23;19946;-80
2022/08/13 08:13:35;;;;;;;;;;;;;;;;;;6243680;23;19990;-80
2022/08/13 08:16:03;;;;;;;;;;;;;;;;;;6192105;23;19951;-83
2022/08/13 08:18:30;;;;;;;;;;;;;;;;;;6243707;23;19938;-79
2022/08/13 08:20:55;;;;;;;;;;;;;;;;;;6243464;23;19962;-79
2022/08/13 08:23:21;;;;;;;;;;;;;;;;;;6242982;22;19946;-81
2022/08/13 08:25:46;;;;;;;;;;;;;;;;;;6245874;23;19915;-82
2022/08/13 08:28:12;;;;;;;;;;;;;;;;;;6222170;23;19930;-81
2022/08/13 08:30:38;;;;;;;;;;;;;;;;;;6252164;23;20257;-80
2022/08/13 08:33:04;;;;;;;;;;;;;;;;;;6243952;23;19915;-82
2022/08/13 08:35:29;;;;;;;;;;;;;;;;;;6243203;23;20344;-81
2022/08/13 08:43:24;;;;;;;;;;;;;;;;;;6243038;23;19977;-80
2022/08/13 08:45:52;;;;;;;;;;;;;;;;;;6243472;23;20267;-82
2022/08/13 08:48:17;;;;;;;;;;;;;;;;;;6242982;23;19912;-80
2022/08/13 08:50:43;;;;;;;;;;;;;;;;;;6243775;22;19922;-81
2022/08/13 08:53:21;;;;;;;;;;;;;;;;;;6244114;23;19907;-81
2022/08/13 08:55:46;;;;;;;;;;;;;;;;;;6257539;23;19942;-81
2022/08/13 08:58:12;;;;;;;;;;;;;;;;;;6219174;23;19927;-80
2022/08/13 09:00:39;;;;;;;;;;;;;;;;;;6217346;23;19908;-80
2022/08/13 09:03:04;;;;;;;;;;;;;;;;;;6241650;23;19911;-80
2022/08/13 09:05:30;;;;;;;;;;;;;;;;;;6245644;23;20367;-82
2022/08/13 09:07:56;;;;;;;;;;;;;;;;;;6219873;23;19953;-80
2022/08/13 09:10:21;;;;;;;;;;;;;;;;;;6245876;23;19919;-82
2022/08/13 09:12:48;;;;;;;;;;;;;;;;;;6247774;23;19911;-82
2022/08/13 09:15:14;;;;;;;;;;;;;;;;;;6246019;23;19916;-81
2022/08/13 09:17:39;;;;;;;;;;;;;;;;;;6244988;23;19914;-81
2022/08/13 09:20:05;;;;;;;;;;;;;;;;;;6244674;23;19907;-81
2022/08/13 09:22:32;;;;;;;;;;;;;;;;;;6217945;23;19908;-80
2022/08/13 09:24:58;;;;;;;;;;;;;;;;;;6244564;23;19918;-80
2022/08/13 09:27:23;;;;;;;;;;;;;;;;;;6244750;23;19938;-81
2022/08/13 09:29:50;;;;;;;;;;;;;;;;;;6244970;23;19907;-80
2022/08/13 09:32:16;;;;;;;;;;;;;;;;;;6217780;23;20307;-80
2022/08/13 09:34:44;;;;;;;;;;;;;;;;;;6244835;23;19915;-81
2022/08/13 09:37:09;;;;;;;;;;;;;;;;;;6244918;23;19949;-80
2022/08/13 09:39:35;;;;;;;;;;;;;;;;;;6217503;23;20342;-79
2022/08/13 09:42:01;;;;;;;;;;;;;;;;;;6244620;23;19907;-81
2022/08/13 09:44:28;;;;;;;;;;;;;;;;;;6244931;23;20329;-82
2022/08/13 09:46:54;;;;;;;;;;;;;;;;;;6244944;23;19907;-80
2022/08/13 09:49:23;;;;;;;;;;;;;;;;;;6244051;23;19916;-82
2022/08/13 09:51:49;;;;;;;;;;;;;;;;;;6244713;23;19912;-82
2022/08/13 09:54:16;;;;;;;;;;;;;;;;;;6244203;23;19916;-81
2022/08/13 09:56:42;;;;;;;;;;;;;;;;;;6244902;23;19908;-81
2022/08/13 09:59:08;;;;;;;;;;;;;;;;;;6244574;23;19914;-81
2022/08/13 10:01:34;;;;;;;;;;;;;;;;;;6244880;23;20282;-80
2022/08/13 10:04:00;;;;;;;;;;;;;;;;;;6245229;23;19935;-81
2022/08/13 10:06:28;;;;;;;;;;;;;;;;;;6251068;23;19930;-81
2022/08/13 10:08:54;;;;;;;;;;;;;;;;;;6231752;23;19907;-80
2022/08/13 10:11:21;;;;;;;;;;;;;;;;;;6247916;23;19914;-79
2022/08/13 10:13:46;;;;;;;;;;;;;;;;;;6244635;23;19907;-80
2022/08/13 10:16:12;;;;;;;;;;;;;;;;;;6192486;23;20368;-81
2022/08/13 10:18:38;;;;;;;;;;;;;;;;;;6244493;23;20340;-80
2022/08/13 10:21:04;;;;;;;;;;;;;;;;;;6244203;23;20340;-80
2022/08/13 10:23:30;;;;;;;;;;;;;;;;;;6243870;22;19962;-80
2022/08/13 10:25:56;;;;;;;;;;;;;;;;;;6243860;23;19907;-80
2022/08/13 10:28:22;;;;;;;;;;;;;;;;;;6244581;23;19915;-80
2022/08/13 10:30:47;;;;;;;;;;;;;;;;;;6242402;23;19908;-80
2022/08/13 10:33:13;;;;;;;;;;;;;;;;;;6244485;23;19907;-81
2022/08/13 10:35:38;;;;;;;;;;;;;;;;;;6244050;23;20336;-79
2022/08/13 10:38:05;;;;;;;;;;;;;;;;;;6244167;23;19946;-81
2022/08/13 10:40:30;;;;;;;;;;;;;;;;;;6244059;23;20050;-80
2022/08/13 10:42:56;;;;;;;;;;;;;;;;;;6244079;23;19970;-81
2022/08/13 10:45:26;;;;;;;;;;;;;;;;;;6244913;23;19908;-81
2022/08/13 10:47:52;;;;;;;;;;;;;;;;;;6257134;23;19998;-80
2022/08/13 10:50:18;;;;;;;;;;;;;;;;;;6220224;23;19919;-81
2022/08/13 10:52:43;;;;;;;;;;;;;;;;;;6245341;23;19907;-81
2022/08/13 10:55:11;;;;;;;;;;;;;;;;;;6243733;23;20378;-80
2022/08/13 10:57:37;;;;;;;;;;;;;;;;;;6243675;23;20398;-82
2022/08/13 11:00:03;;;;;;;;;;;;;;;;;;6217119;23;19911;-82
2022/08/13 11:02:28;;;;;;;;;;;;;;;;;;6244317;23;19913;-80
2022/08/13 11:04:54;;;;;;;;;;;;;;;;;;6217573;23;19942;-80
2022/08/13 11:07:20;;;;;;;;;;;;;;;;;;6217310;23;19953;-80
2022/08/13 11:09:46;;;;;;;;;;;;;;;;;;6217579;23;19930;-81
2022/08/13 11:12:12;;;;;;;;;;;;;;;;;;6243973;23;20293;-80
2022/08/13 11:14:41;;;;;;;;;;;;;;;;;;6242420;23;19926;-80
2022/08/13 11:17:09;;;;;;;;;;;;;;;;;;6245940;23;19907;-80
2022/08/13 11:19:35;;;;;;;;;;;;;;;;;;6245113;23;19914;-81
2022/08/13 11:22:00;;;;;;;;;;;;;;;;;;6243795;22;19927;-81
2022/08/13 11:24:26;;;;;;;;;;;;;;;;;;6243944;23;20396;-80
2022/08/13 11:26:52;;;;;;;;;;;;;;;;;;6243838;23;20248;-80
2022/08/13 11:29:18;;;;;;;;;;;;;;;;;;6243736;23;19907;-81
2022/08/13 11:31:43;;;;;;;;;;;;;;;;;;6244177;23;19969;-80
2022/08/13 11:34:09;;;;;;;;;;;;;;;;;;6243604;23;19930;-80
2022/08/13 11:36:35;;;;;;;;;;;;;;;;;;6244607;23;19916;-81
2022/08/13 11:39:01;;;;;;;;;;;;;;;;;;6243722;23;20170;-81
2022/08/13 11:41:26;;;;;;;;;;;;;;;;;;6217011;23;20178;-79
2022/08/13 11:43:52;;;;;;;;;;;;;;;;;;6243596;23;19911;-80
2022/08/13 11:46:18;;;;;;;;;;;;;;;;;;6243413;23;19913;-80
2022/08/13 11:48:43;;;;;;;;;;;;;;;;;;6243690;23;19987;-78
2022/08/13 11:51:09;;;;;;;;;;;;;;;;;;6243644;23;20336;-80
2022/08/13 11:53:34;;;;;;;;;;;;;;;;;;6243397;23;19938;-81
2022/08/13 11:56:00;;;;;;;;;;;;;;;;;;6243228;23;20247;-80
2022/08/13 11:58:26;;;;;;;;;;;;;;;;;;6243079;23;20256;-79
2022/08/13 12:00:54;;;;;;;;;;;;;;;;;;6243584;23;19908;-81
2022/08/13 12:03:19;;;;;;;;;;;;;;;;;;6243339;23;19922;-82
2022/08/13 12:05:45;;;;;;;;;;;;;;;;;;6243316;23;19907;-81
2022/08/13 12:08:11;;;;;;;;;;;;;;;;;;6243428;23;19907;-80
2022/08/13 12:10:36;;;;;;;;;;;;;;;;;;6243558;23;19911;-78
2022/08/13 12:13:02;;;;;;;;;;;;;;;;;;6243175;23;20360;-80
2022/08/13 12:15:27;;;;;;;;;;;;;;;;;;6242722;23;20419;-80
2022/08/13 12:17:53;;;;;;;;;;;;;;;;;;6243380;23;20304;-81
2022/08/13 12:20:18;;;;;;;;;;;;;;;;;;6243145;23;19907;-81
2022/08/13 12:22:44;;;;;;;;;;;;;;;;;;6243152;22;19908;-81
2022/08/13 12:25:10;;;;;;;;;;;;;;;;;;6243706;23;19953;-80
2022/08/13 12:27:36;;;;;;;;;;;;;;;;;;6244036;23;19911;-82
2022/08/13 12:30:01;;;;;;;;;;;;;;;;;;6243183;23;20303;-81
2022/08/13 12:32:27;;;;;;;;;;;;;;;;;;6243261;23;19939;-80
2022/08/13 12:34:53;;;;;;;;;;;;;;;;;;6242714;23;19915;-74
2022/08/13 12:37:18;;;;;;;;;;;;;;;;;;6242428;23;19907;-74
2022/08/13 12:39:44;;;;;;;;;;;;;;;;;;6242621;23;20418;-75
2022/08/13 12:42:09;;;;;;;;;;;;;;;;;;6242099;23;19907;-75
2022/08/13 12:44:35;;;;;;;;;;;;;;;;;;6241801;23;19950;-74
2022/08/13 12:47:01;;;;;;;;;;;;;;;;;;6242641;23;20259;-73
2022/08/13 12:49:26;;;;;;;;;;;;;;;;;;6241839;23;20538;-74
2022/08/13 12:51:52;;;;;;;;;;;;;;;;;;6242308;23;19914;-75
2022/08/13 12:54:18;;;;;;;;;;;;;;;;;;6242117;23;19934;-74
2022/08/13 12:56:45;;;;;;;;;;;;;;;;;;6240595;23;20225;-75
2022/08/13 12:59:10;;;;;;;;;;;;;;;;;;6241724;23;19908;-75
2022/08/13 13:01:36;;;;;;;;;;;;;;;;;;6241723;23;19915;-75
2022/08/13 13:04:01;;;;;;;;;;;;;;;;;;6215931;23;19914;-75
2022/08/13 13:06:27;;;;;;;;;;;;;;;;;;6242585;23;20341;-73
2022/08/13 13:08:52;;;;;;;;;;;;;;;;;;6216959;23;19907;-74
2022/08/13 13:11:18;;;;;;;;;;;;;;;;;;6256112;23;19911;-76
2022/08/13 13:13:44;;;;;;;;;;;;;;;;;;6254192;23;19908;-76
2022/08/13 13:16:09;;;;;;;;;;;;;;;;;;6243663;23;20336;-74
2022/08/13 13:18:35;;;;;;;;;;;;;;;;;;6242265;23;19908;-74
2022/08/13 13:21:01;;;;;;;;;;;;;;;;;;6240454;23;20394;-73
2022/08/13 13:23:26;;;;;;;;;;;;;;;;;;6241884;22;19912;-75
2022/08/13 13:25:52;;;;;;;;;;;;;;;;;;6242077;23;19911;-74
2022/08/13 13:28:18;;;;;;;;;;;;;;;;;;6215348;23;19957;-74
2022/08/13 13:30:44;;;;;;;;;;;;;;;;;;6241689;23;19936;-74
2022/08/13 13:33:10;;;;;;;;;;;;;;;;;;6242218;23;19915;-75
2022/08/13 13:35:36;;;;;;;;;;;;;;;;;;6241529;23;19915;-74
2022/08/13 13:38:02;;;;;;;;;;;;;;;;;;6241864;23;19990;-74
2022/08/13 13:40:29;;;;;;;;;;;;;;;;;;6241569;23;19961;-75
2022/08/13 13:42:57;;;;;;;;;;;;;;;;;;6242005;23;19952;-72
2022/08/13 13:45:22;;;;;;;;;;;;;;;;;;6241874;23;19961;-75
2022/08/13 13:47:48;;;;;;;;;;;;;;;;;;6242049;23;19989;-74
2022/08/13 13:50:14;;;;;;;;;;;;;;;;;;6241924;23;20475;-73
2022/08/13 13:52:40;;;;;;;;;;;;;;;;;;6243769;23;19907;-74
2022/08/13 13:55:06;;;;;;;;;;;;;;;;;;6243690;23;20010;-74
2022/08/13 13:57:31;;;;;;;;;;;;;;;;;;6243726;23;19939;-74
2022/08/13 13:59:57;;;;;;;;;;;;;;;;;;6243861;23;19922;-75
2022/08/13 14:02:23;;;;;;;;;;;;;;;;;;6243881;23;19911;-74
2022/08/13 14:04:48;;;;;;;;;;;;;;;;;;6216999;23;20171;-74
2022/08/13 14:07:14;;;;;;;;;;;;;;;;;;6244037;23;19931;-74
2022/08/13 14:09:40;;;;;;;;;;;;;;;;;;6241786;23;20336;-73
2022/08/13 14:12:05;;;;;;;;;;;;;;;;;;6243898;23;19907;-74
2022/08/13 14:14:31;;;;;;;;;;;;;;;;;;6243290;23;20338;-74
2022/08/13 14:16:58;;;;;;;;;;;;;;;;;;6243900;23;19917;-74
2022/08/13 14:19:24;;;;;;;;;;;;;;;;;;6242554;23;19927;-75
2022/08/13 14:21:51;;;;;;;;;;;;;;;;;;6243477;22;20038;-73
2022/08/13 14:24:17;;;;;;;;;;;;;;;;;;6243926;23;20038;-74
2022/08/13 14:26:43;;;;;;;;;;;;;;;;;;6243125;23;19907;-74
2022/08/13 14:29:09;;;;;;;;;;;;;;;;;;6243813;23;19938;-74
2022/08/13 14:31:35;;;;;;;;;;;;;;;;;;6243106;23;19986;-74
2022/08/13 14:34:00;;;;;;;;;;;;;;;;;;6243391;23;20113;-75
2022/08/13 14:36:26;;;;;;;;;;;;;;;;;;6242939;23;19951;-74
2022/08/13 14:38:52;;;;;;;;;;;;;;;;;;6243059;23;19985;-76
2022/08/13 14:41:18;;;;;;;;;;;;;;;;;;6242881;23;20336;-76
2022/08/13 14:43:43;;;;;;;;;;;;;;;;;;6242909;23;19908;-75
2022/08/13 14:46:09;;;;;;;;;;;;;;;;;;6243020;23;19907;-74
2022/08/13 14:48:35;;;;;;;;;;;;;;;;;;6242985;23;19919;-73
2022/08/13 14:51:00;;;;;;;;;;;;;;;;;;6242598;23;19915;-74
2022/08/13 14:53:26;;;;;;;;;;;;;;;;;;6243081;23;19998;-75
2022/08/13 14:55:55;;;;;;;;;;;;;;;;;;6240787;23;19919;-73
2022/08/13 14:58:22;;;;;;;;;;;;;;;;;;6241570;23;20327;-74
2022/08/13 15:00:51;;;;;;;;;;;;;;;;;;6242722;23;19912;-74
2022/08/13 15:03:17;;;;;;;;;;;;;;;;;;6243038;23;20384;-74
2022/08/13 15:05:42;;;;;;;;;;;;;;;;;;6242563;23;19918;-75
2022/08/13 15:08:09;;;;;;;;;;;;;;;;;;6216400;23;19962;-75
2022/08/13 15:10:36;;;;;;;;;;;;;;;;;;6242526;23;20003;-73
2022/08/13 15:13:01;;;;;;;;;;;;;;;;;;6243041;23;19907;-74
2022/08/13 15:15:27;;;;;;;;;;;;;;;;;;6242804;23;19942;-74
2022/08/13 15:17:53;;;;;;;;;;;;;;;;;;6242714;23;19915;-75
2022/08/13 15:20:19;;;;;;;;;;;;;;;;;;6242794;23;19961;-74
2022/08/13 15:22:45;;;;;;;;;;;;;;;;;;6242690;22;19922;-72
2022/08/13 15:25:10;;;;;;;;;;;;;;;;;;6242803;23;19907;-75
2022/08/13 15:27:36;;;;;;;;;;;;;;;;;;6242862;23;19911;-74
2022/08/13 15:30:01;;;;;;;;;;;;;;;;;;6242695;23;19982;-74
2022/08/13 15:32:28;;;;;;;;;;;;;;;;;;6243239;23;19994;-75
2022/08/13 15:34:54;;;;;;;;;;;;;;;;;;6242326;23;20013;-74
2022/08/13 15:37:19;;;;;;;;;;;;;;;;;;6242846;23;19907;-75
2022/08/13 15:39:45;;;;;;;;;;;;;;;;;;6215730;23;19994;-75
2022/08/13 15:42:11;;;;;;;;;;;;;;;;;;6242622;23;19907;-75
2022/08/13 15:44:37;;;;;;;;;;;;;;;;;;6190758;23;19926;-75
2022/08/13 15:47:02;;;;;;;;;;;;;;;;;;6240981;23;19994;-74
2022/08/13 15:49:28;;;;;;;;;;;;;;;;;;6242754;23;20264;-73
2022/08/13 15:51:54;;;;;;;;;;;;;;;;;;6242252;23;19908;-73
2022/08/13 15:54:19;;;;;;;;;;;;;;;;;;6242653;23;19927;-75
2022/08/13 15:56:45;;;;;;;;;;;;;;;;;;6242136;23;20048;-75
2022/08/13 15:59:11;;;;;;;;;;;;;;;;;;6242620;23;19995;-75
2022/08/13 16:01:36;;;;;;;;;;;;;;;;;;6242004;23;20328;-74
2022/08/13 16:04:02;;;;;;;;;;;;;;;;;;6242346;23;19990;-75
2022/08/13 16:06:28;;;;;;;;;;;;;;;;;;6240515;23;19968;-75
2022/08/13 16:08:53;;;;;;;;;;;;;;;;;;6242335;23;20285;-75
2022/08/13 16:11:19;;;;;;;;;;;;;;;;;;6242408;23;19960;-73
2022/08/13 16:13:46;;;;;;;;;;;;;;;;;;6242142;23;19908;-74
2022/08/13 16:16:11;;;;;;;;;;;;;;;;;;6220018;23;20081;-76
2022/08/13 16:18:37;;;;;;;;;;;;;;;;;;6219637;23;20363;-74
2022/08/13 16:21:03;;;;;;;;;;;;;;;;;;6246815;23;19912;-75
2022/08/13 16:23:31;;;;;;;;;;;;;;;;;;6250691;22;19908;-75
2022/08/13 16:25:57;;;;;;;;;;;;;;;;;;6254698;23;19907;-74
2022/08/13 16:28:23;;;;;;;;;;;;;;;;;;6246074;23;19908;-74
2022/08/13 16:30:49;;;;;;;;;;;;;;;;;;6215450;23;19908;-73
2022/08/13 16:33:15;;;;;;;;;;;;;;;;;;6242282;23;19914;-74
2022/08/13 16:35:41;;;;;;;;;;;;;;;;;;6211333;23;20431;-74
2022/08/13 16:38:07;;;;;;;;;;;;;;;;;;6240726;23;19907;-76
2022/08/13 16:40:33;;;;;;;;;;;;;;;;;;6242111;23;19930;-74
2022/08/13 16:42:59;;;;;;;;;;;;;;;;;;6215193;23;20391;-75
2022/08/13 16:45:24;;;;;;;;;;;;;;;;;;6242006;23;19908;-75
2022/08/13 16:47:50;;;;;;;;;;;;;;;;;;6242174;23;19962;-74
2022/08/13 16:50:15;;;;;;;;;;;;;;;;;;6241784;22;19989;-75
2022/08/13 16:52:41;;;;;;;;;;;;;;;;;;6189964;23;19907;-74